createdAt,value
2022-10-18T00:00:03.220Z,99.08
2022-10-18T00:02:29.720Z,99.06
2022-10-18T00:04:56.105Z,99.28
2022-10-18T00:07:22.443Z,99.33
2022-10-18T00:09:48.805Z,98.83
2022-10-18T00:12:15.195Z,98.97
2022-10-18T00:14:41.634Z,99.09
2022-10-18T00:17:08.107Z,99.21
2022-10-18T00:19:34.515Z,99.25
2022-10-18T00:22:00.885Z,99.40
2022-10-18T00:24:27.243Z,99.41
2022-10-18T00:26:53.671Z,99.07
2022-10-18T00:29:20.027Z,99.22
2022-10-18T00:31:46.416Z,99.42
2022-10-18T00:34:15.453Z,99.48
2022-10-18T00:36:43.085Z,99.44
2022-10-18T00:39:15.526Z,99.96
2022-10-18T00:41:41.945Z,99.40
2022-10-18T00:44:11.094Z,99.90
2022-10-18T00:46:39.846Z,99.82
2022-10-18T00:49:19.080Z,100.00
2022-10-18T00:51:51.339Z,99.48
2022-10-18T00:54:20.043Z,99.59
2022-10-18T00:56:46.421Z,99.38
2022-10-18T00:59:18.099Z,100.00
2022-10-18T01:01:45.605Z,100.00
2022-10-18T01:04:14.540Z,100.00
2022-10-18T01:06:52.868Z,100.00
2022-10-18T01:09:32.797Z,100.00
2022-10-18T01:12:09.415Z,100.00
2022-10-18T01:15:17.739Z,100.00
2022-10-18T01:18:16.308Z,100.00
2022-10-18T01:21:13.399Z,100.00
2022-10-18T01:24:06.217Z,100.00
2022-10-18T01:26:57.175Z,100.00
2022-10-18T01:29:42.145Z,100.00
2022-10-18T01:32:18.791Z,100.00
2022-10-18T01:34:49.981Z,100.00
2022-10-18T01:37:19.926Z,99.75
2022-10-18T01:39:50.956Z,100.00
2022-10-18T01:42:20.022Z,100.00
2022-10-18T01:44:48.140Z,99.93
2022-10-18T01:47:15.571Z,100.00
2022-10-18T01:49:42.284Z,99.91
2022-10-18T01:52:16.223Z,100.00
2022-10-18T01:54:48.436Z,100.00
2022-10-18T01:57:31.692Z,100.00
2022-10-18T02:00:20.088Z,100.00
2022-10-18T02:02:54.069Z,100.00
2022-10-18T02:05:29.491Z,100.00
2022-10-18T02:08:29.653Z,100.00
2022-10-18T02:11:16.326Z,100.00
2022-10-18T02:13:56.875Z,100.00
2022-10-18T02:16:35.616Z,100.00
2022-10-18T02:19:04.857Z,100.00
2022-10-18T02:21:32.294Z,100.00
2022-10-18T02:24:01.122Z,100.00
2022-10-18T02:26:27.907Z,100.00
2022-10-18T02:28:54.891Z,100.00
2022-10-18T02:31:41.616Z,100.00
2022-10-18T02:34:17.177Z,100.00
2022-10-18T02:36:51.624Z,100.00
2022-10-18T02:39:23.170Z,100.00
2022-10-18T02:41:49.684Z,100.00
2022-10-18T02:44:16.400Z,100.00
2022-10-18T02:46:43.241Z,100.00
2022-10-18T02:49:09.685Z,99.72
2022-10-18T02:51:36.128Z,99.63
2022-10-18T02:54:02.677Z,99.72
2022-10-18T02:56:31.609Z,99.24
2022-10-18T02:58:57.978Z,98.95
2022-10-18T03:01:24.431Z,99.32
2022-10-18T03:03:51.051Z,99.04
2022-10-18T03:06:17.535Z,99.89
2022-10-18T03:08:43.958Z,100.00
2022-10-18T03:11:10.479Z,100.00
2022-10-18T03:13:37.093Z,100.00
2022-10-18T03:16:03.575Z,100.00
2022-10-18T03:18:29.952Z,100.00
2022-10-18T03:20:56.295Z,100.00
2022-10-18T03:23:22.674Z,100.00
2022-10-18T03:25:49.048Z,100.00
2022-10-18T03:28:15.465Z,100.00
2022-10-18T03:30:41.879Z,100.00
2022-10-18T03:33:08.339Z,100.00
2022-10-18T03:35:34.702Z,99.67
2022-10-18T03:38:01.104Z,99.92
2022-10-18T03:40:27.776Z,99.72
2022-10-18T03:42:54.265Z,99.65
2022-10-18T03:45:20.648Z,99.39
2022-10-18T03:47:47.125Z,99.02
2022-10-18T03:50:13.597Z,99.25
2022-10-18T03:52:39.982Z,98.98
2022-10-18T03:55:06.967Z,98.93
2022-10-18T03:57:33.599Z,98.73
2022-10-18T03:59:59.956Z,99.05
2022-10-18T04:02:26.381Z,98.54
2022-10-18T04:04:52.839Z,98.63
2022-10-18T04:07:19.310Z,98.76
2022-10-18T04:09:45.701Z,98.65
2022-10-18T04:12:12.233Z,98.60
2022-10-18T04:14:38.704Z,98.70
2022-10-18T04:17:05.090Z,98.49
2022-10-18T04:19:31.505Z,98.65
2022-10-18T04:21:58.534Z,98.95
2022-10-18T04:24:24.947Z,98.78
2022-10-18T04:26:51.586Z,99.35
2022-10-18T04:29:18.149Z,99.25
2022-10-18T04:31:44.825Z,99.04
2022-10-18T04:34:11.322Z,99.27
2022-10-18T04:36:37.796Z,99.46
2022-10-18T04:39:04.138Z,98.90
2022-10-18T04:41:30.558Z,98.78
2022-10-18T04:43:56.932Z,98.66
2022-10-18T04:46:23.590Z,98.67
2022-10-18T04:48:50.005Z,99.08
2022-10-18T04:51:16.371Z,99.64
2022-10-18T04:53:42.802Z,99.72
2022-10-18T04:56:09.209Z,99.93
2022-10-18T04:58:35.708Z,100.00
2022-10-18T05:01:06.325Z,100.00
2022-10-18T05:03:33.042Z,100.00
2022-10-18T05:06:03.246Z,100.00
2022-10-18T05:08:30.621Z,100.00
2022-10-18T05:10:57.211Z,100.00
2022-10-18T05:13:23.840Z,100.00
2022-10-18T05:15:50.583Z,100.00
2022-10-18T05:18:17.364Z,100.00
2022-10-18T05:20:43.898Z,100.00
2022-10-18T05:23:10.873Z,100.00
2022-10-18T05:25:41.218Z,100.00
2022-10-18T05:28:10.780Z,100.00
2022-10-18T05:30:47.614Z,100.00
2022-10-18T05:33:14.021Z,100.00
2022-10-18T05:35:40.503Z,100.00
2022-10-18T05:38:07.014Z,100.00
2022-10-18T05:40:33.973Z,100.00
2022-10-18T05:43:00.396Z,100.00
2022-10-18T05:45:26.821Z,100.00
2022-10-18T05:47:53.206Z,100.00
2022-10-18T05:50:19.623Z,99.75
2022-10-18T05:52:46.254Z,100.00
2022-10-18T05:55:12.827Z,99.85
2022-10-18T05:57:39.184Z,99.58
2022-10-18T06:00:06.139Z,99.53
2022-10-18T06:02:32.515Z,99.77
2022-10-18T06:04:58.883Z,99.79
2022-10-18T06:07:25.271Z,99.87
2022-10-18T06:09:51.698Z,99.56
2022-10-18T06:12:18.179Z,99.56
2022-10-18T06:14:44.582Z,99.52
2022-10-18T06:17:11.132Z,99.49
2022-10-18T06:19:37.606Z,99.27
2022-10-18T06:22:03.962Z,98.90
2022-10-18T06:24:30.390Z,98.85
2022-10-18T06:26:57.564Z,98.99
2022-10-18T06:29:24.051Z,99.08
2022-10-18T06:31:50.400Z,99.23
2022-10-18T06:34:16.928Z,99.21
2022-10-18T06:36:43.298Z,99.11
2022-10-18T06:39:10.257Z,98.89
2022-10-18T06:41:36.645Z,98.74
2022-10-18T06:44:13.665Z,98.55
2022-10-18T06:46:47.298Z,99.55
2022-10-18T06:49:18.980Z,98.84
2022-10-18T06:51:46.335Z,98.66
2022-10-18T06:54:17.891Z,98.69
2022-10-18T06:56:45.318Z,98.18
2022-10-18T06:59:11.825Z,98.32
2022-10-18T07:01:38.346Z,98.12
2022-10-18T07:04:04.810Z,97.93
2022-10-18T07:06:31.380Z,97.85
2022-10-18T07:08:57.886Z,98.09
2022-10-18T07:11:26.885Z,98.13
2022-10-18T07:13:55.029Z,98.06
2022-10-18T07:16:21.548Z,97.73
2022-10-18T07:18:50.456Z,97.69
2022-10-18T07:21:22.357Z,97.57
2022-10-18T07:23:49.512Z,97.69
2022-10-18T07:26:21.432Z,98.25
2022-10-18T07:28:50.847Z,97.84
2022-10-18T07:31:18.097Z,97.11
2022-10-18T07:33:44.752Z,97.35
2022-10-18T07:36:13.010Z,96.77
2022-10-18T07:38:40.261Z,96.51
2022-10-18T07:41:07.697Z,96.67
2022-10-18T07:43:35.414Z,97.09
2022-10-18T07:46:04.639Z,97.02
2022-10-18T07:48:31.286Z,97.42
2022-10-18T07:50:59.561Z,97.07
2022-10-18T07:53:26.331Z,97.47
2022-10-18T07:55:52.725Z,96.77
2022-10-18T07:58:19.060Z,96.73
2022-10-18T08:00:45.396Z,97.12
2022-10-18T08:03:12.035Z,96.66
2022-10-18T08:05:38.598Z,96.75
2022-10-18T08:08:07.932Z,96.26
2022-10-18T08:10:35.192Z,96.04
2022-10-18T08:13:01.533Z,96.21
2022-10-18T08:15:27.967Z,95.98
2022-10-18T08:17:54.380Z,95.24
2022-10-18T08:20:30.383Z,94.89
2022-10-18T08:23:00.467Z,94.57
2022-10-18T08:25:28.017Z,94.35
2022-10-18T08:27:54.424Z,94.20
2022-10-18T08:30:20.971Z,94.31
2022-10-18T08:32:47.355Z,93.13
2022-10-18T08:35:13.799Z,92.93
2022-10-18T08:37:40.384Z,92.34
2022-10-18T08:40:07.472Z,92.26
2022-10-18T08:42:39.902Z,91.91
2022-10-18T08:45:12.870Z,92.14
2022-10-18T08:47:57.712Z,92.00
2022-10-18T08:50:34.784Z,92.45
2022-10-18T08:53:17.757Z,93.82
2022-10-18T08:55:55.400Z,93.72
2022-10-18T08:58:32.328Z,93.51
2022-10-18T09:01:38.217Z,93.57
2022-10-18T09:04:07.809Z,92.27
2022-10-18T09:06:45.517Z,92.61
2022-10-18T09:09:33.746Z,94.29
2022-10-18T09:12:09.290Z,93.47
2022-10-18T09:14:47.899Z,93.37
2022-10-18T09:17:23.476Z,91.18
2022-10-18T09:20:11.213Z,91.76
2022-10-18T09:22:49.551Z,89.73
2022-10-18T09:25:39.303Z,89.19
2022-10-18T09:28:30.824Z,90.64
2022-10-18T09:31:18.800Z,89.88
2022-10-18T09:33:56.261Z,88.74
2022-10-18T09:36:35.325Z,87.23
2022-10-18T09:39:18.771Z,82.78
2022-10-18T09:41:52.830Z,83.39
2022-10-18T09:44:24.004Z,79.89
2022-10-18T09:46:55.882Z,78.97
2022-10-18T09:49:27.602Z,79.02
2022-10-18T09:51:54.244Z,78.19
2022-10-18T09:54:28.075Z,78.15
2022-10-18T09:57:05.256Z,76.74
2022-10-18T09:59:36.231Z,73.68
2022-10-18T10:02:03.019Z,73.63
2022-10-18T10:04:29.633Z,72.49
2022-10-18T10:06:59.146Z,71.87
2022-10-18T10:09:48.185Z,72.50
2022-10-18T10:12:35.870Z,73.38
2022-10-18T10:15:23.128Z,74.08
2022-10-18T10:18:26.512Z,74.50
2022-10-18T10:21:00.352Z,73.08
2022-10-18T10:23:38.919Z,73.41
2022-10-18T10:26:20.746Z,71.43
2022-10-18T10:28:49.162Z,69.87
2022-10-18T10:31:24.818Z,68.09
2022-10-18T10:34:13.500Z,67.33
2022-10-18T10:36:53.905Z,64.81
2022-10-18T10:39:23.342Z,65.05
2022-10-18T10:41:53.271Z,65.13
2022-10-18T10:44:25.279Z,63.16
2022-10-18T10:46:53.230Z,63.37
2022-10-18T10:52:33.709Z,62.04
2022-10-18T10:55:06.205Z,61.17
2022-10-18T10:57:46.779Z,60.78
2022-10-18T11:00:39.766Z,61.71
2022-10-18T11:03:27.732Z,62.07
2022-10-18T11:05:55.670Z,60.99
2022-10-18T11:08:43.270Z,61.27
2022-10-18T11:11:22.893Z,60.71
2022-10-18T11:14:06.954Z,60.68
2022-10-18T11:17:16.080Z,62.40
2022-10-18T11:20:05.057Z,61.65
2022-10-18T11:22:40.930Z,61.17
2022-10-18T11:25:13.038Z,61.50
2022-10-18T11:27:47.185Z,58.38
2022-10-18T11:30:33.091Z,57.98
2022-10-18T11:33:29.537Z,58.10
2022-10-18T11:36:15.826Z,57.19
2022-10-18T11:39:01.398Z,58.78
2022-10-18T11:42:00.382Z,58.73
2022-10-18T11:44:43.039Z,59.38
2022-10-18T11:47:42.605Z,58.46
2022-10-18T11:50:26.212Z,57.24
2022-10-18T11:53:17.761Z,56.19
2022-10-18T11:56:22.375Z,55.95
2022-10-18T11:59:02.415Z,56.94
2022-10-18T12:01:38.043Z,58.48
2022-10-18T12:04:23.655Z,57.12
2022-10-18T12:06:54.111Z,57.11
2022-10-18T12:09:26.209Z,57.26
2022-10-18T12:12:03.066Z,57.27
2022-10-18T12:14:35.012Z,55.30
2022-10-18T12:17:41.711Z,55.08
2022-10-18T12:19:55.966Z,54.23
2022-10-18T12:22:25.357Z,52.09
2022-10-18T12:24:51.805Z,50.82
2022-10-18T12:27:19.092Z,51.38
2022-10-18T12:29:53.559Z,51.73
2022-10-18T12:32:29.499Z,51.94
2022-10-18T12:35:18.975Z,51.49
2022-10-18T12:38:14.705Z,51.93
2022-10-18T12:40:48.331Z,52.46
2022-10-18T12:43:38.374Z,52.78
2022-10-18T12:46:12.196Z,52.88
2022-10-18T12:48:45.537Z,53.12
2022-10-18T12:51:16.872Z,51.85
2022-10-18T12:53:46.483Z,52.44
2022-10-18T12:56:43.512Z,52.42
2022-10-18T12:59:15.817Z,52.21
2022-10-18T13:01:51.588Z,51.87
2022-10-18T13:04:27.098Z,51.91
2022-10-18T13:07:05.547Z,51.57
2022-10-18T13:09:36.452Z,51.48
2022-10-18T13:12:13.062Z,52.75
2022-10-18T13:15:12.574Z,52.49
2022-10-18T13:17:56.050Z,52.46
2022-10-18T13:20:27.395Z,53.05
2022-10-18T13:22:59.419Z,53.35
2022-10-18T13:25:25.909Z,52.37
2022-10-18T13:28:29.722Z,53.37
2022-10-18T13:31:22.127Z,52.92
2022-10-18T13:33:48.988Z,51.79
2022-10-18T13:36:22.810Z,52.41
2022-10-18T13:39:03.433Z,52.54
2022-10-18T13:41:56.666Z,52.72
2022-10-18T13:44:24.435Z,51.53
2022-10-18T13:46:51.389Z,51.18
2022-10-18T13:49:26.872Z,51.58
2022-10-18T13:52:11.810Z,51.68
2022-10-18T13:54:56.939Z,52.39
2022-10-18T13:57:29.807Z,52.68
2022-10-18T14:00:21.017Z,53.00
2022-10-18T14:03:51.215Z,53.53
2022-10-18T14:06:12.356Z,52.93
2022-10-18T14:08:44.594Z,53.29
2022-10-18T14:11:10.945Z,53.01
2022-10-18T14:13:51.835Z,53.88
2022-10-18T14:16:29.759Z,53.84
2022-10-18T14:19:07.322Z,54.67
2022-10-18T14:21:39.531Z,55.25
2022-10-18T14:24:18.862Z,56.08
2022-10-18T14:26:46.732Z,56.89
2022-10-18T14:29:19.699Z,57.35
2022-10-18T14:31:53.569Z,57.14
2022-10-18T14:34:20.842Z,58.07
2022-10-18T14:36:49.533Z,58.82
2022-10-18T14:39:22.465Z,59.58
2022-10-18T14:41:51.812Z,60.67
2022-10-18T14:44:26.410Z,61.24
2022-10-18T14:47:03.472Z,61.48
2022-10-18T14:49:30.893Z,61.39
2022-10-18T14:52:00.333Z,61.49
2022-10-18T14:54:36.152Z,62.47
2022-10-18T14:57:04.655Z,62.46
2022-10-18T14:59:36.320Z,62.40
2022-10-18T15:02:12.710Z,62.68
2022-10-18T15:04:39.112Z,62.61
2022-10-18T15:07:07.687Z,62.80
2022-10-18T15:09:36.001Z,63.46
2022-10-18T15:12:04.945Z,63.40
2022-10-18T15:14:32.011Z,63.81
2022-10-18T15:17:02.544Z,63.73
2022-10-18T15:19:35.262Z,63.77
2022-10-18T15:25:15.367Z,63.81
2022-10-18T15:27:45.519Z,63.69
2022-10-18T15:30:28.019Z,64.02
2022-10-18T15:32:59.173Z,63.68
2022-10-18T15:35:29.088Z,63.53
2022-10-18T15:38:17.431Z,63.72
2022-10-18T15:40:43.988Z,63.17
2022-10-18T15:43:25.738Z,63.37
2022-10-18T15:46:03.226Z,63.63
2022-10-18T15:48:35.118Z,64.10
2022-10-18T15:51:04.738Z,63.94
2022-10-18T15:53:34.698Z,64.27
2022-10-18T15:56:24.575Z,64.73
2022-10-18T15:58:51.376Z,64.58
2022-10-18T16:01:22.523Z,65.11
2022-10-18T16:03:50.470Z,64.91
2022-10-18T16:06:18.449Z,64.90
2022-10-18T16:08:50.964Z,65.63
2022-10-18T16:11:19.170Z,65.14
2022-10-18T16:13:45.661Z,65.32
2022-10-18T16:16:18.438Z,65.94
2022-10-18T16:18:44.944Z,65.79
2022-10-18T16:21:22.445Z,66.27
2022-10-18T16:23:49.525Z,66.25
2022-10-18T16:26:17.797Z,66.78
2022-10-18T16:28:45.506Z,66.91
2022-10-18T16:31:26.336Z,67.42
2022-10-18T16:33:54.244Z,67.43
2022-10-18T16:36:23.676Z,67.74
2022-10-18T16:38:50.444Z,67.94
2022-10-18T16:41:17.568Z,68.18
2022-10-18T16:43:45.725Z,68.43
2022-10-18T16:46:18.563Z,68.86
2022-10-18T16:48:45.943Z,68.65
2022-10-18T16:51:12.459Z,68.77
2022-10-18T16:53:38.912Z,69.18
2022-10-18T16:56:11.417Z,69.33
2022-10-18T16:58:37.791Z,69.60
2022-10-18T17:01:06.755Z,69.72
2022-10-18T17:03:35.914Z,69.84
2022-10-18T17:06:02.283Z,70.01
2022-10-18T17:08:28.843Z,69.77
2022-10-18T17:10:57.322Z,70.03
2022-10-18T17:13:25.115Z,69.92
2022-10-18T17:15:52.263Z,69.53
2022-10-18T17:18:26.245Z,69.82
2022-10-18T17:20:52.777Z,69.67
2022-10-18T17:23:19.150Z,69.23
2022-10-18T17:25:58.933Z,69.58
2022-10-18T17:28:33.499Z,69.29
2022-10-18T17:30:59.909Z,69.61
2022-10-18T17:33:26.351Z,69.37
2022-10-18T17:35:52.686Z,69.40
2022-10-18T17:38:19.059Z,69.41
2022-10-18T17:40:45.485Z,69.20
2022-10-18T17:43:13.546Z,69.05
2022-10-18T17:45:48.111Z,69.71
2022-10-18T17:48:14.603Z,69.33
2022-10-18T17:50:41.478Z,69.55
2022-10-18T17:53:07.996Z,69.67
2022-10-18T17:55:35.017Z,69.83
2022-10-18T17:58:01.848Z,70.01
2022-10-18T18:00:28.590Z,70.45
2022-10-18T18:02:59.369Z,71.09
2022-10-18T18:05:29.496Z,70.74
2022-10-18T18:07:56.903Z,70.96
2022-10-18T18:10:26.528Z,71.22
2022-10-18T18:12:52.915Z,71.19
2022-10-18T18:15:19.249Z,71.10
2022-10-18T18:17:56.629Z,71.30
2022-10-18T18:20:26.858Z,71.79
2022-10-18T18:22:53.310Z,71.39
2022-10-18T18:25:19.844Z,71.25
2022-10-18T18:27:46.375Z,71.36
2022-10-18T18:30:12.854Z,71.35
2022-10-18T18:32:39.230Z,71.19
2022-10-18T18:35:05.939Z,71.13
2022-10-18T18:37:32.466Z,71.08
2022-10-18T18:39:58.838Z,70.83
2022-10-18T18:42:25.227Z,70.47
2022-10-18T18:44:51.586Z,70.28
2022-10-18T18:47:21.231Z,69.96
2022-10-18T18:49:47.712Z,69.62
2022-10-18T18:52:14.088Z,69.11
2022-10-18T18:54:40.491Z,68.45
2022-10-18T18:57:07.178Z,68.38
2022-10-18T18:59:34.057Z,68.07
2022-10-18T19:02:00.487Z,67.99
2022-10-18T19:04:28.894Z,67.71
2022-10-18T19:06:55.296Z,67.72
2022-10-18T19:09:22.736Z,67.60
2022-10-18T19:11:52.793Z,67.79
2022-10-18T19:14:19.795Z,67.63
2022-10-18T19:16:47.531Z,67.44
2022-10-18T19:19:16.646Z,67.70
2022-10-18T19:21:49.091Z,68.08
2022-10-18T19:24:15.847Z,67.87
2022-10-18T19:26:47.075Z,68.24
2022-10-18T19:29:21.325Z,68.32
2022-10-18T19:31:48.515Z,68.04
2022-10-18T19:34:16.414Z,67.89
2022-10-18T19:36:44.947Z,68.22
2022-10-18T19:39:21.734Z,68.60
2022-10-18T19:41:50.539Z,68.18
2022-10-18T19:44:18.430Z,68.12
2022-10-18T19:46:45.559Z,68.43
2022-10-18T19:49:11.949Z,68.62
2022-10-18T19:51:38.382Z,68.82
2022-10-18T19:54:04.942Z,68.95
2022-10-18T19:56:34.492Z,69.58
2022-10-18T19:59:01.420Z,69.43
2022-10-18T20:01:29.057Z,69.74
2022-10-18T20:03:56.002Z,70.12
2022-10-18T20:06:23.261Z,70.26
2022-10-18T20:08:50.504Z,70.44
2022-10-18T20:11:19.870Z,70.93
2022-10-18T20:13:46.986Z,70.91
2022-10-18T20:16:15.572Z,71.41
2022-10-18T20:18:45.513Z,71.68
2022-10-18T20:21:14.171Z,71.94
2022-10-18T20:23:41.981Z,72.39
2022-10-18T20:26:15.459Z,73.01
2022-10-18T20:28:56.437Z,73.48
2022-10-18T20:31:26.092Z,73.32
2022-10-18T20:33:58.477Z,73.97
2022-10-18T20:36:25.534Z,73.62
2022-10-18T20:38:53.029Z,73.71
2022-10-18T20:41:24.923Z,73.99
2022-10-18T20:43:53.353Z,73.76
2022-10-18T20:46:20.276Z,73.82
2022-10-18T20:48:47.112Z,74.45
2022-10-18T20:51:13.492Z,74.63
2022-10-18T20:53:40.718Z,74.74
2022-10-18T20:56:17.280Z,75.48
2022-10-18T20:58:44.854Z,75.45
2022-10-18T21:01:17.573Z,76.57
2022-10-18T21:03:45.743Z,76.84
2022-10-18T21:06:14.791Z,77.22
2022-10-18T21:08:42.045Z,77.45
2022-10-18T21:11:09.284Z,77.76
2022-10-18T21:13:35.809Z,78.25
2022-10-18T21:16:03.591Z,78.55
2022-10-18T21:18:32.563Z,78.60
2022-10-18T21:21:09.281Z,78.98
2022-10-18T21:23:36.082Z,78.33
2022-10-18T21:26:02.568Z,77.85
2022-10-18T21:28:29.001Z,77.60
2022-10-18T21:30:57.731Z,77.36
2022-10-18T21:33:24.060Z,77.25
2022-10-18T21:35:50.426Z,77.23
2022-10-18T21:38:16.792Z,77.08
2022-10-18T21:40:44.586Z,77.33
2022-10-18T21:43:11.787Z,76.72
2022-10-18T21:45:38.211Z,76.96
2022-10-18T21:48:04.877Z,76.88
2022-10-18T21:50:33.931Z,76.98
2022-10-18T21:53:00.440Z,76.45
2022-10-18T21:55:26.850Z,76.91
2022-10-18T21:57:53.212Z,76.97
2022-10-18T22:00:19.776Z,77.32
2022-10-18T22:02:46.306Z,77.70
2022-10-18T22:05:12.671Z,77.84
2022-10-18T22:07:39.092Z,78.45
2022-10-18T22:10:08.680Z,79.70
2022-10-18T22:12:35.060Z,79.87
2022-10-18T22:15:04.789Z,81.16
2022-10-18T22:17:34.293Z,81.56
2022-10-18T22:20:00.927Z,82.02
2022-10-18T22:22:27.328Z,82.51
2022-10-18T22:24:53.680Z,83.01
2022-10-18T22:27:20.277Z,82.67
2022-10-18T22:29:46.730Z,83.44
2022-10-18T22:32:13.111Z,83.39
2022-10-18T22:34:39.528Z,83.95
2022-10-18T22:37:05.969Z,84.31
2022-10-18T22:39:32.464Z,84.69
2022-10-18T22:41:58.806Z,84.80
2022-10-18T22:44:25.285Z,85.07
2022-10-18T22:46:51.644Z,85.05
2022-10-18T22:49:18.034Z,85.32
2022-10-18T22:51:44.423Z,85.34
2022-10-18T22:54:10.863Z,85.37
2022-10-18T22:56:37.280Z,85.67
2022-10-18T22:59:04.075Z,85.91
2022-10-18T23:01:30.535Z,85.99
2022-10-18T23:03:59.231Z,86.36
2022-10-18T23:06:36.514Z,86.61
2022-10-18T23:09:08.227Z,87.12
2022-10-18T23:11:35.996Z,86.73
2022-10-18T23:14:03.899Z,86.82
2022-10-18T23:16:30.505Z,86.84
2022-10-18T23:18:58.338Z,87.07
2022-10-18T23:21:27.902Z,87.11
2022-10-18T23:23:55.660Z,87.00
2022-10-18T23:26:24.553Z,87.18
2022-10-18T23:28:52.656Z,86.94
2022-10-18T23:31:24.718Z,86.65
2022-10-18T23:33:53.306Z,86.53
2022-10-18T23:36:20.106Z,86.42
2022-10-18T23:38:46.512Z,86.62
2022-10-18T23:41:14.793Z,86.78
2022-10-18T23:43:42.017Z,86.99
2022-10-18T23:46:09.641Z,87.50
2022-10-18T23:48:36.200Z,87.67
2022-10-18T23:51:03.866Z,87.97
2022-10-18T23:53:31.626Z,88.17
2022-10-18T23:56:03.866Z,88.84
2022-10-18T23:58:32.171Z,88.60
